Time;durP1;ratioP1;P1;durP2;ratioP2;P2;SDS_P1;SDS_P2;PMS_P1;PMS_P2;Temp;Humidity;BMP_temperature;BMP_pressure;BME280_temperature;BME280_humidity;BME280_pressure;Samples;Min_cycle;Max_cycle;Signal;HPM_P1;HPM_P2
2024/01/26 00:02:15;;;;;;;14.57;11.50;;;14.50;70.20;16.20;102086.00;;;;4964799;28;20218;-78
2024/01/26 00:04:42;;;;;;;13.43;11.57;;;14.50;70.20;16.20;102077.00;;;;4969275;28;20212;-78
2024/01/26 00:07:09;;;;;;;13.23;10.98;;;14.50;70.20;16.20;102082.00;;;;4969476;28;20213;-78
2024/01/26 00:09:38;;;;;;;14.85;11.05;;;14.50;70.20;16.20;102083.00;;;;4969598;28;20260;-78
2024/01/26 00:12:06;;;;;;;14.65;11.32;;;14.50;70.20;16.20;102078.00;;;;4959568;28;20238;-78
2024/01/26 00:14:33;;;;;;;14.98;10.70;;;14.50;70.30;16.20;102071.00;;;;4952360;28;20230;-78
2024/01/26 00:17:00;;;;;;;13.38;10.80;;;14.50;70.20;16.20;102060.00;;;;4968696;28;20198;-78
2024/01/26 00:19:26;;;;;;;12.43;9.93;;;14.50;70.20;16.20;102062.00;;;;4968375;28;20202;-78
2024/01/26 00:21:53;;;;;;;14.30;11.18;;;14.50;70.20;16.20;102063.00;;;;4968852;28;20217;-78
2024/01/26 00:24:20;;;;;;;13.20;10.75;;;14.40;70.20;16.20;102053.00;;;;4967988;28;20222;-77
2024/01/26 00:26:49;;;;;;;12.73;9.95;;;14.50;70.30;16.20;102068.00;;;;4967031;28;20672;-77
2024/01/26 00:29:16;;;;;;;12.70;10.52;;;14.50;70.20;16.20;102069.00;;;;4958710;28;20218;-77
2024/01/26 00:31:43;;;;;;;11.77;10.18;;;14.50;70.20;16.20;102063.00;;;;4968443;28;20712;-77
2024/01/26 00:34:10;;;;;;;13.82;10.05;;;14.50;70.20;16.10;102070.00;;;;4970713;28;20225;-77
2024/01/26 00:36:37;;;;;;;10.98;9.77;;;14.50;70.90;16.10;102063.00;;;;4971774;28;20201;-77
2024/01/26 00:39:04;;;;;;;10.20;8.85;;;14.40;70.20;16.20;102060.00;;;;4971251;28;20198;-77
2024/01/26 00:41:31;;;;;;;12.25;9.77;;;14.50;70.20;16.10;102048.00;;;;4972096;28;20195;-77
2024/01/26 00:43:59;;;;;;;9.88;8.88;;;14.40;70.20;16.10;102052.00;;;;4972345;28;21256;-77
2024/01/26 00:46:26;;;;;;;9.95;8.90;;;14.40;70.20;16.10;102057.00;;;;4967103;28;20213;-77
2024/01/26 00:48:54;;;;;;;11.57;9.32;;;14.40;70.20;16.10;102057.00;;;;4971470;28;20559;-77
2024/01/26 00:51:21;;;;;;;11.50;9.05;;;14.40;70.20;16.10;102053.00;;;;4970791;28;20206;-77
2024/01/26 00:53:48;;;;;;;10.32;8.65;;;14.40;70.20;16.10;102053.00;;;;4970397;28;20195;-77
2024/01/26 00:56:15;;;;;;;10.90;8.13;;;14.40;70.20;16.10;102053.00;;;;4970883;28;20217;-77
2024/01/26 00:58:42;;;;;;;10.27;8.20;;;14.40;70.20;16.10;102045.00;;;;4970933;28;20225;-76
2024/01/26 01:01:10;;;;;;;9.27;8.15;;;14.40;70.20;16.10;102035.00;;;;4971367;28;20218;-78
2024/01/26 01:03:37;;;;;;;9.32;7.75;;;14.40;70.20;16.10;102043.00;;;;4958069;28;20206;-78
2024/01/26 01:06:04;;;;;;;8.55;7.20;;;14.40;70.20;16.10;102051.00;;;;4961332;28;20202;-77
2024/01/26 01:08:31;;;;;;;8.00;6.97;;;14.40;70.20;16.10;102043.00;;;;4970019;28;20209;-78
2024/01/26 01:10:58;;;;;;;8.27;7.43;;;14.40;70.20;16.10;102036.00;;;;4971467;28;20234;-78
2024/01/26 01:13:25;;;;;;;8.55;7.30;;;14.40;70.20;16.10;102046.00;;;;4970682;28;20237;-77
2024/01/26 01:15:52;;;;;;;9.98;7.13;;;14.40;70.20;16.10;102040.00;;;;4971064;28;20219;-78
2024/01/26 01:18:21;;;;;;;8.93;7.68;;;14.40;70.20;16.00;102043.00;;;;4970333;28;20676;-77
2024/01/26 01:20:48;;;;;;;9.82;8.32;;;14.40;70.30;16.10;102043.00;;;;4968338;28;20209;-77
2024/01/26 01:23:16;;;;;;;10.10;8.63;;;14.40;70.30;16.10;102023.00;;;;4969822;28;20212;-77
2024/01/26 01:25:43;;;;;;;9.63;7.60;;;14.40;70.30;16.10;102022.00;;;;4970546;28;20202;-77
2024/01/26 01:28:10;;;;;;;9.15;7.35;;;14.40;70.30;16.10;102016.00;;;;4970891;28;20213;-77
2024/01/26 01:30:37;;;;;;;8.98;7.28;;;14.40;70.30;16.10;102010.00;;;;4970332;28;20222;-78
2024/01/26 01:33:05;;;;;;;8.50;6.68;;;14.40;70.30;16.10;102006.00;;;;4970509;28;20198;-77
2024/01/26 01:35:33;;;;;;;8.93;6.65;;;14.40;70.30;16.00;102001.00;;;;4971506;28;20226;-78
2024/01/26 01:38:00;;;;;;;11.00;7.90;;;14.40;70.30;16.10;101996.00;;;;4965222;28;20213;-78
2024/01/26 01:40:28;;;;;;;8.20;6.78;;;14.40;70.30;16.10;101987.00;;;;4970866;28;20726;-78
2024/01/26 01:42:55;;;;;;;8.50;6.60;;;14.40;70.30;16.10;101975.00;;;;4971138;28;20211;-78
2024/01/26 01:45:23;;;;;;;6.72;5.75;;;14.40;70.30;16.10;101985.00;;;;4970189;28;20201;-78
2024/01/26 01:47:50;;;;;;;6.68;5.63;;;14.40;70.30;16.10;101972.00;;;;4971137;28;20392;-78
2024/01/26 01:50:16;;;;;;;8.13;5.07;;;14.40;70.30;16.10;101974.00;;;;4969165;28;20217;-78
2024/01/26 01:52:48;;;;;;;7.10;5.05;;;14.40;70.30;16.10;101987.00;;;;4970620;28;20565;-78
2024/01/26 01:55:16;;;;;;;7.20;4.88;;;14.40;70.30;16.10;101983.00;;;;4969871;28;20230;-78
2024/01/26 01:57:44;;;;;;;7.20;4.75;;;14.40;70.30;16.10;101980.00;;;;4971184;28;20759;-78
2024/01/26 02:00:16;;;;;;;4.97;4.28;;;14.50;70.30;16.10;101984.00;;;;4970765;28;20245;-78
2024/01/26 02:02:45;;;;;;;4.55;4.00;;;14.40;70.20;16.10;101974.00;;;;4970617;28;20261;-78
2024/01/26 02:05:13;;;;;;;5.05;4.57;;;14.50;70.30;16.20;101961.00;;;;4970672;28;20198;-78
2024/01/26 02:07:40;;;;;;;4.70;4.20;;;14.40;70.20;16.20;101959.00;;;;4970318;28;20206;-78
2024/01/26 02:10:09;;;;;;;4.43;3.33;;;14.50;70.30;16.10;101965.00;;;;4968265;28;20226;-78
2024/01/26 02:12:37;;;;;;;7.80;4.25;;;14.50;70.30;16.10;101961.00;;;;4951323;28;20202;-78
2024/01/26 02:15:08;;;;;;;4.63;3.50;;;14.50;70.20;16.10;101951.00;;;;4967540;28;20218;-78
2024/01/26 02:17:36;;;;;;;3.75;3.35;;;14.40;70.20;16.20;101951.00;;;;4969348;28;20217;-78
2024/01/26 02:20:05;;;;;;;2.95;2.65;;;14.50;70.20;16.20;101943.00;;;;4969962;28;20222;-78
2024/01/26 02:22:32;;;;;;;3.50;3.20;;;14.50;70.30;16.20;101957.00;;;;4970355;28;20200;-78
2024/01/26 02:25:01;;;;;;;4.38;3.50;;;14.50;70.20;16.10;101941.00;;;;4970208;28;20222;-78
2024/01/26 02:27:28;;;;;;;3.65;3.13;;;14.50;70.20;16.20;101921.00;;;;4966341;28;20202;-78
2024/01/26 02:29:55;;;;;;;3.25;2.95;;;14.50;70.20;16.20;101937.00;;;;4954491;28;20226;-78
2024/01/26 02:32:21;;;;;;;4.03;3.63;;;14.50;70.20;16.20;101922.00;;;;4969657;28;20202;-78
2024/01/26 02:34:48;;;;;;;5.03;4.53;;;14.50;70.20;16.20;101926.00;;;;4969770;28;20693;-78
2024/01/26 02:37:15;;;;;;;4.25;3.83;;;14.50;70.30;16.20;101926.00;;;;4970260;28;20567;-77
2024/01/26 02:39:42;;;;;;;5.30;4.55;;;14.50;70.30;16.20;101931.00;;;;4970334;28;20210;-78
2024/01/26 02:42:11;;;;;;;5.85;5.25;;;14.50;70.30;16.20;101924.00;;;;4969930;28;20202;-78
2024/01/26 02:44:37;;;;;;;7.18;5.57;;;14.50;70.30;16.20;101917.00;;;;4964526;28;20657;-77
2024/01/26 02:47:05;;;;;;;6.57;5.63;;;14.50;70.30;16.20;101913.00;;;;4968792;28;20206;-78
2024/01/26 02:49:33;;;;;;;6.88;6.07;;;14.50;70.30;16.20;101904.00;;;;4968361;28;20202;-78
2024/01/26 02:52:00;;;;;;;7.47;6.45;;;14.50;71.00;16.20;101903.00;;;;4969787;28;20680;-78
2024/01/26 02:54:27;;;;;;;9.90;7.30;;;14.50;70.20;16.20;101890.00;;;;4969167;28;20201;-78
2024/01/26 02:56:56;;;;;;;9.25;6.75;;;14.50;70.30;16.20;101894.00;;;;4970285;28;20633;-78
2024/01/26 02:59:25;;;;;;;8.68;7.35;;;14.60;70.30;16.20;101865.00;;;;4969197;28;20278;-78
2024/01/26 03:01:52;;;;;;;8.85;6.63;;;14.50;70.30;16.20;101859.00;;;;4962001;28;20207;-78
2024/01/26 03:04:19;;;;;;;7.43;6.38;;;14.60;70.30;16.20;101858.00;;;;4964895;28;20465;-78
2024/01/26 03:06:46;;;;;;;8.35;7.50;;;14.60;70.40;16.20;101856.00;;;;4968288;28;20199;-78
2024/01/26 03:09:13;;;;;;;9.02;7.35;;;14.60;70.30;16.20;101847.00;;;;4969187;28;20334;-78
2024/01/26 03:11:43;;;;;;;8.90;7.53;;;14.60;70.30;16.20;101851.00;;;;4968480;28;20253;-78
2024/01/26 03:14:11;;;;;;;8.25;7.15;;;14.60;70.40;16.30;101858.00;;;;4967884;28;20209;-78
2024/01/26 03:16:41;;;;;;;8.32;6.95;;;14.60;70.40;16.20;101857.00;;;;4968552;28;20715;-78
2024/01/26 03:19:08;;;;;;;7.70;6.90;;;14.60;70.40;16.30;101849.00;;;;4968501;28;20210;-78
2024/01/26 03:21:42;;;;;;;7.55;6.72;;;14.60;70.40;16.20;101854.00;;;;4969229;28;20597;-79
2024/01/26 03:24:09;;;;;;;7.95;6.55;;;14.70;70.50;16.30;101839.00;;;;4969344;28;20253;-79
2024/01/26 03:26:37;;;;;;;6.47;5.70;;;14.60;70.40;16.30;101839.00;;;;4968530;28;20282;-79
2024/01/26 03:29:04;;;;;;;6.78;6.07;;;14.60;70.40;16.30;101834.00;;;;4969685;28;20198;-78
2024/01/26 03:31:31;;;;;;;7.18;6.22;;;14.70;70.50;16.30;101823.00;;;;4968539;28;20297;-79
2024/01/26 03:33:59;;;;;;;6.28;5.65;;;14.70;70.50;16.30;101823.00;;;;4969500;28;20599;-79
2024/01/26 03:36:27;;;;;;;6.75;5.30;;;14.70;70.50;16.30;101812.00;;;;4967092;28;20229;-79
2024/01/26 03:38:54;;;;;;;7.30;5.22;;;14.70;70.50;16.30;101824.00;;;;4968882;28;20198;-79
2024/01/26 03:41:21;;;;;;;5.15;4.55;;;14.70;70.40;16.30;101816.00;;;;4969379;28;20201;-79
2024/01/26 03:43:51;;;;;;;5.80;4.80;;;14.70;70.40;16.30;101818.00;;;;4969113;28;20561;-76
2024/01/26 03:46:19;;;;;;;4.78;4.25;;;14.70;70.50;16.30;101805.00;;;;4968954;28;20206;-76
2024/01/26 03:48:46;;;;;;;4.47;4.07;;;14.70;70.40;16.30;101802.00;;;;4968525;28;20202;-77
2024/01/26 03:51:14;;;;;;;4.68;4.07;;;14.70;70.40;16.30;101812.00;;;;4968130;28;20677;-77
2024/01/26 03:53:41;;;;;;;4.10;3.70;;;14.70;70.40;16.30;101799.00;;;;4954125;28;20635;-77
2024/01/26 03:56:08;;;;;;;6.20;3.72;;;14.70;70.40;16.30;101788.00;;;;4968088;28;20241;-77
2024/01/26 03:58:35;;;;;;;5.90;3.95;;;14.70;70.40;16.30;101807.00;;;;4969007;28;20210;-77
2024/01/26 04:01:02;;;;;;;4.50;3.67;;;14.70;70.40;16.30;101794.00;;;;4968241;28;20205;-78
2024/01/26 04:03:28;;;;;;;4.75;4.15;;;14.70;70.50;16.30;101793.00;;;;4968714;28;20209;-77
2024/01/26 04:05:55;;;;;;;4.38;3.97;;;14.80;70.50;16.30;101792.00;;;;4964688;28;20207;-77
2024/01/26 04:08:24;;;;;;;5.57;4.38;;;14.80;70.60;16.30;101778.00;;;;4964593;28;20202;-77
2024/01/26 04:10:51;;;;;;;5.28;4.35;;;14.70;70.50;16.30;101778.00;;;;4957040;28;20290;-76
2024/01/26 04:13:17;;;;;;;5.78;4.32;;;14.80;70.50;16.30;101777.00;;;;4960842;28;20626;-77
2024/01/26 04:15:46;;;;;;;5.60;4.22;;;14.80;70.50;16.30;101770.00;;;;4970929;28;20238;-77
2024/01/26 04:18:13;;;;;;;6.43;4.70;;;14.70;70.50;16.40;101768.00;;;;4971696;28;20229;-77
2024/01/26 04:20:40;;;;;;;5.43;4.50;;;14.80;70.60;16.40;101769.00;;;;4972363;28;20206;-77
2024/01/26 04:23:07;;;;;;;5.28;4.55;;;14.80;70.60;16.40;101765.00;;;;4972016;28;20205;-77
2024/01/26 04:25:36;;;;;;;4.65;4.13;;;14.80;70.60;16.40;101762.00;;;;4972949;28;20205;-77
2024/01/26 04:28:03;;;;;;;7.95;4.93;;;14.80;70.60;16.40;101754.00;;;;4962387;28;20720;-76
2024/01/26 04:30:30;;;;;;;5.25;4.55;;;14.80;70.60;16.40;101762.00;;;;4970611;28;20233;-78
2024/01/26 04:32:57;;;;;;;6.68;4.32;;;14.80;70.60;16.40;101749.00;;;;4967926;28;20199;-77
2024/01/26 04:35:24;;;;;;;5.20;4.35;;;14.80;70.60;16.40;101748.00;;;;4957353;28;20210;-77
2024/01/26 04:37:51;;;;;;;4.97;4.45;;;14.80;70.60;16.40;101748.00;;;;4972730;28;20619;-77
2024/01/26 04:40:19;;;;;;;5.15;4.65;;;14.90;70.70;16.40;101739.00;;;;4972504;28;20597;-77
2024/01/26 04:42:47;;;;;;;4.53;4.13;;;14.80;70.70;16.40;101727.00;;;;4972791;28;20205;-77
2024/01/26 04:45:14;;;;;;;5.57;4.35;;;14.80;70.70;16.40;101734.00;;;;4953566;28;20741;-78
2024/01/26 04:47:41;;;;;;;4.90;4.40;;;14.90;70.80;16.40;101728.00;;;;4960799;28;20202;-78
2024/01/26 04:50:08;;;;;;;15.05;5.00;;;14.90;70.70;16.40;101725.00;;;;4972163;28;20207;-78
2024/01/26 04:52:35;;;;;;;5.85;5.05;;;14.90;70.80;16.40;101720.00;;;;4972376;28;20202;-77
2024/01/26 04:55:04;;;;;;;5.45;4.53;;;14.90;70.90;16.40;101711.00;;;;4972064;28;20210;-78
2024/01/26 04:57:31;;;;;;;5.57;4.95;;;14.90;70.90;16.50;101705.00;;;;4971404;28;20206;-78
2024/01/26 04:59:59;;;;;;;5.45;3.97;;;14.90;70.90;16.50;101705.00;;;;4971641;28;20202;-78
2024/01/26 05:02:26;;;;;;;6.93;5.38;;;14.90;70.90;16.40;101702.00;;;;4952970;28;20206;-78
2024/01/26 05:04:53;;;;;;;7.95;5.05;;;14.90;70.90;16.50;101686.00;;;;4964103;28;20206;-78
2024/01/26 05:07:20;;;;;;;6.20;4.45;;;14.90;70.90;16.50;101679.00;;;;4971463;28;20198;-78
2024/01/26 05:09:47;;;;;;;6.15;4.43;;;14.90;70.90;16.50;101677.00;;;;4971735;28;20194;-78
2024/01/26 05:12:13;;;;;;;5.40;4.53;;;15.00;70.90;16.50;101669.00;;;;4971175;28;20234;-78
2024/01/26 05:14:40;;;;;;;4.68;4.07;;;14.90;70.90;16.50;101667.00;;;;4972071;28;20198;-78
2024/01/26 05:17:09;;;;;;;4.82;4.30;;;14.90;70.90;16.50;101667.00;;;;4968295;28;20222;-77
2024/01/26 05:19:36;;;;;;;5.85;4.40;;;15.00;70.90;16.50;101656.00;;;;4951756;28;20203;-77
2024/01/26 05:22:03;;;;;;;5.07;4.05;;;15.00;70.90;16.50;101659.00;;;;4951902;28;20725;-77
2024/01/26 05:24:30;;;;;;;7.47;4.38;;;15.00;70.90;16.50;101653.00;;;;4955556;28;20187;-77
2024/01/26 05:26:57;;;;;;;5.05;4.43;;;15.00;70.90;16.50;101646.00;;;;4966321;28;20205;-77
2024/01/26 05:29:25;;;;;;;5.68;4.90;;;15.00;70.90;16.50;101645.00;;;;4971299;28;20210;-77
2024/01/26 05:31:52;;;;;;;5.38;4.22;;;15.00;70.90;16.50;101646.00;;;;4971741;28;20242;-77
2024/01/26 05:34:20;;;;;;;5.88;4.50;;;15.00;70.90;16.50;101649.00;;;;4968390;28;20225;-76
2024/01/26 05:36:47;;;;;;;5.57;4.57;;;15.00;70.90;16.50;101629.00;;;;4960395;28;20319;-77
2024/01/26 05:39:14;;;;;;;6.30;4.43;;;15.00;71.00;16.50;101644.00;;;;4971819;28;20202;-77
2024/01/26 05:41:42;;;;;;;5.93;3.70;;;15.00;71.00;16.60;101631.00;;;;4970385;28;20206;-76
2024/01/26 05:44:09;;;;;;;4.75;4.20;;;15.00;71.00;16.60;101624.00;;;;4971204;28;20699;-76
2024/01/26 05:46:36;;;;;;;5.32;3.80;;;15.00;70.90;16.60;101627.00;;;;4970165;28;20265;-77
2024/01/26 05:49:03;;;;;;;5.15;4.03;;;15.00;70.90;16.50;101627.00;;;;4971438;28;20241;-77
2024/01/26 05:51:31;;;;;;;5.18;4.15;;;15.00;71.00;16.50;101625.00;;;;4966900;28;20592;-77
2024/01/26 05:53:58;;;;;;;3.72;3.33;;;15.00;71.00;16.50;101606.00;;;;4951245;28;20562;-78
2024/01/26 05:56:25;;;;;;;4.63;3.88;;;15.00;70.90;16.50;101602.00;;;;4959523;28;20581;-77
2024/01/26 05:58:53;;;;;;;4.10;3.53;;;15.00;71.10;16.50;101607.00;;;;4973813;28;20252;-78
2024/01/26 06:01:20;;;;;;;4.20;3.75;;;15.00;71.00;16.40;101599.00;;;;4980569;28;20201;-77
2024/01/26 06:03:47;;;;;;;5.05;3.60;;;15.00;71.00;16.40;101612.00;;;;4974282;28;20208;-76
2024/01/26 06:06:15;;;;;;;4.03;3.15;;;15.00;71.10;16.40;101606.00;;;;4970059;28;20210;-78
2024/01/26 06:08:44;;;;;;;4.07;3.67;;;15.00;71.20;16.40;101609.00;;;;4951668;28;20218;-76
2024/01/26 06:11:10;;;;;;;3.70;3.40;;;15.00;71.20;16.40;101603.00;;;;4951510;28;20238;-77
2024/01/26 06:16:09;;;;;;;4.53;3.58;;;14.90;71.30;16.40;101599.00;;;;5001384;28;20292;-78
2024/01/26 06:18:36;;;;;;;3.45;3.10;;;14.90;71.40;16.40;101593.00;;;;5012677;28;20729;-79
2024/01/26 06:21:03;;;;;;;3.40;3.10;;;14.90;71.40;16.40;101595.00;;;;5012899;28;20208;-77
2024/01/26 06:23:30;;;;;;;4.50;3.45;;;14.90;71.40;16.40;101589.00;;;;5012966;28;20207;-77
2024/01/26 06:25:59;;;;;;;5.20;3.10;;;14.90;71.50;16.40;101590.00;;;;4995041;28;20237;-79
2024/01/26 06:28:26;;;;;;;4.13;3.58;;;14.90;71.50;16.40;101588.00;;;;5012339;28;20197;-76
2024/01/26 06:30:53;;;;;;;3.60;3.30;;;14.90;71.40;16.40;101590.00;;;;5001912;28;20290;-78
2024/01/26 06:33:20;;;;;;;5.07;4.05;;;14.90;71.50;16.40;101579.00;;;;4993023;28;20675;-78
2024/01/26 06:35:47;;;;;;;4.10;2.95;;;14.90;71.50;16.40;101593.00;;;;4993014;28;20198;-79
2024/01/26 06:38:14;;;;;;;3.83;3.35;;;14.90;71.50;16.40;101583.00;;;;5008536;28;20197;-78
2024/01/26 06:40:41;;;;;;;3.38;3.08;;;14.90;71.60;16.40;101597.00;;;;5012601;28;20211;-79
2024/01/26 06:43:10;;;;;;;5.90;4.18;;;14.90;71.60;16.40;101589.00;;;;5012365;28;20674;-78
2024/01/26 06:45:37;;;;;;;3.65;3.17;;;14.90;71.70;16.40;101591.00;;;;5002025;28;20569;-79
2024/01/26 06:48:05;;;;;;;3.72;3.00;;;14.90;71.70;16.40;101591.00;;;;5006821;28;20205;-79
2024/01/26 06:50:33;;;;;;;3.75;3.28;;;14.90;71.60;16.50;101577.00;;;;5012445;28;20237;-80
2024/01/26 06:53:00;;;;;;;5.18;3.70;;;14.90;71.60;16.40;101571.00;;;;5012331;28;20733;-80
2024/01/26 06:55:27;;;;;;;4.45;4.03;;;14.90;71.70;16.40;101573.00;;;;5012435;28;20189;-80
2024/01/26 06:57:54;;;;;;;5.50;4.07;;;14.90;71.70;16.40;101571.00;;;;5010464;28;20220;-81
2024/01/26 07:00:23;;;;;;;4.30;3.53;;;15.00;71.70;16.40;101575.00;;;;5011898;28;20303;-79
2024/01/26 07:02:50;;;;;;;3.35;3.05;;;14.90;71.70;16.50;101573.00;;;;5009584;28;20569;-79
2024/01/26 07:05:17;;;;;;;4.07;3.67;;;14.90;71.70;16.50;101577.00;;;;5012212;28;20659;-78
2024/01/26 07:07:44;;;;;;;3.78;3.47;;;14.90;71.70;16.50;101577.00;;;;5010593;28;20209;-80
2024/01/26 07:10:12;;;;;;;4.15;3.75;;;14.90;72.40;16.40;101569.00;;;;5011764;28;20209;-79
2024/01/26 07:12:39;;;;;;;4.00;3.35;;;14.90;71.70;16.50;101556.00;;;;5000749;28;20198;-79
2024/01/26 07:15:09;;;;;;;3.60;3.30;;;15.00;71.70;16.50;101559.00;;;;4994498;28;20240;-82
2024/01/26 07:17:38;;;;;;;4.25;3.85;;;14.90;71.70;16.50;101571.00;;;;4994990;28;20571;-75
2024/01/26 07:20:07;;;;;;;4.88;3.92;;;15.00;71.90;16.50;101567.00;;;;4993744;28;20284;-77
2024/01/26 07:22:34;;;;;;;4.57;3.80;;;15.00;71.90;16.50;101558.00;;;;4999837;28;20313;-75
2024/01/26 07:25:01;;;;;;;4.53;4.13;;;15.00;72.10;16.50;101571.00;;;;5000596;28;20232;-76
2024/01/26 07:27:29;;;;;;;4.10;3.70;;;15.00;72.20;16.50;101567.00;;;;4999208;28;20197;-76
2024/01/26 07:29:56;;;;;;;4.30;3.90;;;15.00;72.20;16.50;101574.00;;;;5000765;28;20205;-76
2024/01/26 07:32:23;;;;;;;4.05;3.65;;;15.00;72.20;16.50;101579.00;;;;4992310;28;20206;-76
2024/01/26 07:34:51;;;;;;;5.13;4.40;;;15.00;72.10;16.50;101574.00;;;;5008278;28;20221;-76
2024/01/26 07:37:18;;;;;;;4.43;4.03;;;15.00;72.20;16.50;101569.00;;;;5011765;28;20233;-76
2024/01/26 07:39:45;;;;;;;5.03;4.50;;;15.00;72.20;16.50;101584.00;;;;5011014;28;20200;-77
2024/01/26 07:42:12;;;;;;;5.32;4.82;;;15.00;72.20;16.50;101586.00;;;;5008441;28;20204;-77
2024/01/26 07:44:39;;;;;;;4.75;4.30;;;15.10;72.30;16.60;101580.00;;;;5014734;28;20184;-76
2024/01/26 07:47:06;;;;;;;4.28;3.88;;;15.10;72.20;16.60;101588.00;;;;5015116;28;20200;-76
2024/01/26 07:49:33;;;;;;;4.25;3.85;;;15.10;72.20;16.60;101572.00;;;;5011025;28;20654;-76
2024/01/26 07:52:02;;;;;;;4.38;3.92;;;15.10;72.60;16.60;101593.00;;;;5002462;28;20236;-76
2024/01/26 07:54:29;;;;;;;4.55;4.15;;;15.10;72.50;16.60;101594.00;;;;4995997;28;20216;-77
2024/01/26 07:56:56;;;;;;;4.60;3.40;;;15.10;72.40;16.60;101590.00;;;;4997160;28;20699;-76
2024/01/26 07:59:23;;;;;;;4.25;3.85;;;15.10;72.50;16.60;101605.00;;;;5015738;28;20279;-76
2024/01/26 08:01:50;;;;;;;5.60;4.15;;;15.10;72.50;16.60;101613.00;;;;5015703;28;20228;-77
2024/01/26 08:04:17;;;;;;;4.28;3.72;;;15.10;72.50;16.60;101597.00;;;;5015634;28;20227;-75
2024/01/26 08:06:44;;;;;;;4.82;4.30;;;15.20;72.60;16.60;101619.00;;;;5014295;28;20200;-76
2024/01/26 08:09:12;;;;;;;4.40;3.50;;;15.20;72.70;16.60;101620.00;;;;5013685;28;20193;-76
2024/01/26 08:11:39;;;;;;;4.60;4.10;;;15.20;72.60;16.60;101614.00;;;;4998602;28;20640;-76
2024/01/26 08:14:06;;;;;;;5.22;4.60;;;15.20;72.60;16.70;101614.00;;;;5001969;28;20227;-76
2024/01/26 08:16:35;;;;;;;3.83;3.53;;;15.20;72.70;16.70;101626.00;;;;5010046;28;20231;-76
2024/01/26 08:19:03;;;;;;;5.05;4.55;;;15.20;72.60;16.70;101613.00;;;;4995840;28;20671;-76
2024/01/26 08:21:30;;;;;;;5.13;4.63;;;15.20;72.60;16.70;101614.00;;;;4994865;28;20194;-74
2024/01/26 08:23:57;;;;;;;7.63;4.03;;;15.20;72.60;16.70;101602.00;;;;5007419;28;20232;-75
2024/01/26 08:26:26;;;;;;;4.18;3.72;;;15.20;72.50;16.70;101608.00;;;;4995470;28;20288;-75
2024/01/26 08:28:54;;;;;;;5.28;4.03;;;15.30;72.60;16.70;101608.00;;;;5004900;28;20643;-76
2024/01/26 08:31:21;;;;;;;5.88;4.20;;;15.30;73.20;16.70;101600.00;;;;5008995;28;20201;-76
2024/01/26 08:33:48;;;;;;;3.22;2.92;;;15.30;72.50;16.70;101612.00;;;;5014913;28;20217;-75
2024/01/26 08:36:15;;;;;;;7.32;4.40;;;15.30;72.40;16.80;101601.00;;;;5014578;28;20201;-75
2024/01/26 08:38:42;;;;;;;4.72;3.25;;;15.30;72.40;16.80;101581.00;;;;5013532;28;20205;-76
2024/01/26 08:41:09;;;;;;;5.97;3.95;;;15.30;72.30;16.80;101606.00;;;;5013811;28;20201;-76
2024/01/26 08:43:37;;;;;;;6.22;3.50;;;15.40;72.40;16.80;101620.00;;;;4995484;28;20288;-75
2024/01/26 08:46:04;;;;;;;3.92;3.45;;;15.40;72.40;16.80;101618.00;;;;4997811;28;20201;-75
2024/01/26 08:48:31;;;;;;;6.05;4.28;;;15.40;72.30;16.80;101630.00;;;;5006948;28;20205;-75
2024/01/26 08:50:58;;;;;;;3.45;3.15;;;15.40;72.40;16.70;101637.00;;;;5007169;28;20215;-74
2024/01/26 08:53:25;;;;;;;6.13;3.03;;;15.40;72.30;16.80;101633.00;;;;5003558;28;20194;-73
2024/01/26 08:55:52;;;;;;;3.88;2.83;;;15.40;72.20;16.70;101648.00;;;;4999272;28;20209;-74
2024/01/26 08:58:19;;;;;;;4.63;1.98;;;15.30;72.20;16.70;101643.00;;;;5006866;28;20226;-74
2024/01/26 09:00:49;;;;;;;8.45;2.72;;;15.40;72.10;16.70;101646.00;;;;5004586;28;20722;-74
2024/01/26 09:03:16;;;;;;;4.05;2.45;;;15.30;72.20;16.70;101668.00;;;;4998681;28;20204;-73
2024/01/26 09:05:44;;;;;;;2.28;1.58;;;15.30;72.10;16.70;101664.00;;;;5001010;28;20247;-75
2024/01/26 09:08:11;;;;;;;5.55;1.42;;;15.30;72.10;16.60;101666.00;;;;4996868;28;20224;-74
2024/01/26 09:10:38;;;;;;;2.50;1.48;;;15.30;72.20;16.60;101673.00;;;;5004266;28;20193;-74
2024/01/26 09:13:07;;;;;;;5.57;1.42;;;15.30;72.70;16.50;101720.00;;;;5011353;28;20193;-74
2024/01/26 09:15:34;;;;;;;4.13;1.13;;;15.20;71.50;16.50;101726.00;;;;5007844;28;20754;-73
2024/01/26 09:18:02;;;;;;;5.28;1.83;;;15.20;70.90;16.40;101732.00;;;;5007765;28;20315;-74
2024/01/26 09:20:29;;;;;;;3.13;0.70;;;15.10;70.30;16.30;101758.00;;;;5014407;28;20200;-74
2024/01/26 09:22:56;;;;;;;5.30;1.17;;;15.00;69.80;16.20;101761.00;;;;5012856;28;20208;-74
2024/01/26 09:25:24;;;;;;;3.03;0.68;;;15.00;69.30;16.10;101755.00;;;;5013781;28;20196;-74
2024/01/26 09:27:51;;;;;;;4.32;0.90;;;14.90;69.40;16.10;101745.00;;;;4994428;28;20281;-74
2024/01/26 09:30:18;;;;;;;7.00;0.90;;;14.80;69.10;16.00;101765.00;;;;4994818;28;20292;-74
2024/01/26 09:32:45;;;;;;;7.85;1.33;;;14.80;69.10;16.00;101796.00;;;;4998340;28;20674;-74
2024/01/26 09:35:14;;;;;;;4.25;1.05;;;14.70;69.30;15.90;101788.00;;;;5012813;28;20212;-73
2024/01/26 09:37:42;;;;;;;6.10;1.42;;;14.60;69.10;15.70;101808.00;;;;5012211;28;20311;-76
2024/01/26 09:40:12;;;;;;;4.32;0.60;;;14.60;67.30;15.50;101822.00;;;;5000168;28;20198;-75
2024/01/26 09:42:39;;;;;;;7.70;0.68;;;14.40;66.80;15.30;101828.00;;;;5013059;28;20200;-75
2024/01/26 09:45:09;;;;;;;1.95;0.63;;;14.30;66.40;15.20;101835.00;;;;5013729;28;20209;-75
2024/01/26 09:47:36;;;;;;;1.75;0.40;;;14.20;66.00;15.10;101846.00;;;;5011392;28;20670;-74
2024/01/26 09:50:05;;;;;;;3.05;0.40;;;14.00;66.60;15.00;101841.00;;;;5012398;28;20209;-75
2024/01/26 09:52:36;;;;;;;3.33;0.75;;;13.90;66.70;14.90;101835.00;;;;5012602;28;20784;-75
2024/01/26 09:55:06;;;;;;;2.35;0.52;;;13.80;66.40;14.80;101852.00;;;;4994713;28;20588;-75
2024/01/26 09:57:33;;;;;;;2.60;0.50;;;13.70;66.80;14.80;101864.00;;;;5012446;28;20290;-74
2024/01/26 10:00:00;;;;;;;5.43;0.50;;;13.60;66.70;14.70;101869.00;;;;5008347;28;20208;-75
2024/01/26 10:02:28;;;;;;;4.10;0.75;;;13.50;66.70;14.70;101890.00;;;;5002674;28;20202;-75
2024/01/26 10:04:56;;;;;;;4.15;0.52;;;13.40;66.90;14.70;101886.00;;;;5004828;28;20194;-75
2024/01/26 10:07:24;;;;;;;4.53;0.95;;;13.40;67.20;14.70;101907.00;;;;5005747;28;20563;-75
2024/01/26 10:09:52;;;;;;;6.35;1.25;;;13.30;67.20;14.60;101923.00;;;;5007597;28;20204;-75
2024/01/26 10:12:19;;;;;;;4.35;0.90;;;13.30;67.40;14.60;101930.00;;;;5009524;28;20663;-75
2024/01/26 10:14:46;;;;;;;3.90;1.00;;;13.30;67.10;14.60;101935.00;;;;5009144;28;20255;-75
2024/01/26 10:17:18;;;;;;;7.13;0.95;;;13.20;67.00;14.50;101925.00;;;;5001021;28;20256;-76
2024/01/26 10:19:45;;;;;;;7.28;1.10;;;13.20;67.10;14.50;101930.00;;;;4994607;28;20666;-74
2024/01/26 10:22:12;;;;;;;4.70;0.98;;;13.20;66.80;14.50;101946.00;;;;4998594;28;20802;-75
2024/01/26 10:24:39;;;;;;;4.95;1.08;;;13.20;66.70;14.40;101955.00;;;;5001317;28;20550;-75
2024/01/26 10:27:07;;;;;;;6.93;1.00;;;13.10;66.80;14.40;101966.00;;;;5006617;28;20201;-74
2024/01/26 10:29:37;;;;;;;2.85;0.95;;;13.10;66.70;14.40;101960.00;;;;5001862;28;20641;-74
2024/01/26 10:32:14;;;;;;;4.80;0.82;;;13.10;66.70;14.40;101961.00;;;;4998173;28;20695;-74
2024/01/26 10:34:44;;;;;;;5.03;1.20;;;13.10;66.40;14.40;101963.00;;;;4994900;28;20705;-75
2024/01/26 10:37:16;;;;;;;3.08;0.70;;;13.10;66.30;14.40;101991.00;;;;5005969;28;20577;-75
2024/01/26 10:39:46;;;;;;;4.50;1.02;;;13.10;65.80;14.40;101998.00;;;;4995833;28;20198;-75
2024/01/26 10:42:15;;;;;;;5.60;0.80;;;13.10;65.80;14.40;102022.00;;;;5005083;28;20206;-74
2024/01/26 10:44:44;;;;;;;5.43;0.68;;;13.10;65.40;14.40;102012.00;;;;5006507;28;20276;-74
2024/01/26 10:47:13;;;;;;;9.00;1.45;;;13.10;64.90;14.40;102025.00;;;;5007467;28;20292;-74
2024/01/26 10:49:43;;;;;;;3.60;1.10;;;13.10;64.50;14.40;102038.00;;;;5009302;28;20196;-74